createdAt,value
2023-01-22T00:00:38.849Z,23.38
2023-01-22T00:03:05.272Z,21.50
2023-01-22T00:05:31.668Z,23.63
2023-01-22T00:07:58.086Z,20.95
2023-01-22T00:10:24.557Z,23.67
2023-01-22T00:12:50.956Z,22.95
2023-01-22T00:15:17.371Z,22.48
2023-01-22T00:17:43.750Z,26.70
2023-01-22T00:20:11.443Z,27.80
2023-01-22T00:22:37.853Z,27.42
2023-01-22T00:25:05.348Z,26.20
2023-01-22T00:27:31.765Z,29.40
2023-01-22T00:29:58.163Z,27.23
2023-01-22T00:32:24.580Z,26.77
2023-01-22T00:34:52.573Z,30.00
2023-01-22T00:37:20.257Z,28.38
2023-01-22T00:39:46.657Z,29.05
2023-01-22T00:42:13.110Z,29.52
2023-01-22T00:44:39.500Z,34.13
2023-01-22T00:47:05.921Z,32.15
2023-01-22T00:49:32.383Z,35.17
2023-01-22T00:51:58.789Z,31.80
2023-01-22T00:54:25.178Z,31.30
2023-01-22T00:56:51.556Z,30.98
2023-01-22T00:59:18.070Z,33.45
2023-01-22T01:01:44.504Z,32.38
2023-01-22T01:04:10.962Z,29.33
2023-01-22T01:06:37.328Z,32.83
2023-01-22T01:09:05.242Z,33.08
2023-01-22T01:11:31.914Z,36.17
2023-01-22T01:13:58.347Z,35.83
2023-01-22T01:16:26.965Z,34.45
2023-01-22T01:18:53.552Z,35.20
2023-01-22T01:21:19.930Z,35.00
2023-01-22T01:23:46.488Z,37.15
2023-01-22T01:26:15.250Z,38.85
2023-01-22T01:28:42.538Z,35.35
2023-01-22T01:31:11.520Z,35.92
2023-01-22T01:33:38.268Z,38.72
2023-01-22T01:36:07.340Z,35.65
2023-01-22T01:38:33.991Z,35.40
2023-01-22T01:41:00.506Z,38.13
2023-01-22T01:43:27.088Z,38.80
2023-01-22T01:45:54.913Z,41.50
2023-01-22T01:48:30.374Z,38.33
2023-01-22T01:51:06.046Z,39.38
2023-01-22T01:53:32.840Z,37.38
2023-01-22T01:56:01.270Z,42.55
2023-01-22T01:58:29.082Z,40.10
2023-01-22T02:00:59.872Z,38.28
2023-01-22T02:03:27.075Z,41.30
2023-01-22T02:05:53.465Z,42.35
2023-01-22T02:08:19.939Z,46.67
2023-01-22T02:10:46.379Z,41.75
2023-01-22T02:13:19.308Z,38.55
2023-01-22T02:15:45.721Z,39.83
2023-01-22T02:18:12.108Z,36.53
2023-01-22T02:20:39.766Z,38.38
2023-01-22T02:23:07.328Z,41.78
2023-01-22T02:25:34.117Z,36.50
2023-01-22T02:28:00.738Z,40.40
2023-01-22T02:30:27.257Z,37.00
2023-01-22T02:32:53.664Z,42.35
2023-01-22T02:35:20.130Z,39.72
2023-01-22T02:37:46.550Z,39.50
2023-01-22T02:40:13.319Z,37.90
2023-01-22T02:42:39.825Z,40.95
2023-01-22T02:45:06.751Z,37.35
2023-01-22T02:47:35.365Z,36.63
2023-01-22T02:50:02.301Z,39.70
2023-01-22T02:52:28.771Z,37.45
2023-01-22T02:54:55.166Z,39.65
2023-01-22T02:57:21.530Z,34.95
2023-01-22T02:59:47.938Z,33.80
2023-01-22T03:02:14.355Z,35.40
2023-01-22T03:04:40.864Z,35.28
2023-01-22T03:07:07.222Z,39.00
2023-01-22T03:09:33.611Z,41.70
2023-01-22T03:12:00.052Z,36.20
2023-01-22T03:14:45.114Z,38.55
2023-01-22T03:17:29.967Z,35.45
2023-01-22T03:20:15.134Z,37.33
2023-01-22T03:22:41.621Z,39.55
2023-01-22T03:25:08.128Z,37.03
2023-01-22T03:27:34.541Z,34.83
2023-01-22T03:30:00.929Z,37.85
2023-01-22T03:32:27.353Z,37.42
2023-01-22T03:34:53.777Z,34.58
2023-01-22T03:37:20.217Z,39.95
2023-01-22T03:39:46.705Z,35.28
2023-01-22T03:42:13.128Z,30.42
2023-01-22T03:44:39.492Z,32.00
2023-01-22T03:47:05.872Z,32.75
2023-01-22T03:49:32.288Z,30.65
2023-01-22T03:51:58.681Z,32.38
2023-01-22T03:54:25.099Z,30.90
2023-01-22T03:56:51.515Z,32.60
2023-01-22T03:59:17.919Z,34.28
2023-01-22T04:01:44.350Z,32.35
2023-01-22T04:04:10.844Z,32.92
2023-01-22T04:06:37.283Z,32.35
2023-01-22T04:09:03.892Z,32.72
2023-01-22T04:11:30.349Z,34.17
2023-01-22T04:13:56.855Z,32.08
2023-01-22T04:16:23.389Z,32.95
2023-01-22T04:18:50.059Z,33.85
2023-01-22T04:21:16.441Z,35.45
2023-01-22T04:23:42.924Z,34.85
2023-01-22T04:26:09.382Z,37.67
2023-01-22T04:28:35.766Z,32.63
2023-01-22T04:31:02.372Z,31.30
2023-01-22T04:33:28.942Z,31.13
2023-01-22T04:35:55.431Z,32.60
2023-01-22T04:38:21.985Z,29.00
2023-01-22T04:40:48.340Z,30.75
2023-01-22T04:43:14.721Z,28.17
2023-01-22T04:45:41.169Z,29.52
2023-01-22T04:48:08.535Z,30.45
2023-01-22T04:50:35.018Z,29.70
2023-01-22T04:53:01.632Z,29.27
2023-01-22T04:55:28.511Z,28.35
2023-01-22T04:57:56.628Z,29.52
2023-01-22T05:00:23.508Z,27.70
2023-01-22T05:02:49.997Z,28.33
2023-01-22T05:05:16.806Z,26.88
2023-01-22T05:07:43.201Z,26.05
2023-01-22T05:10:10.062Z,27.95
2023-01-22T05:12:36.515Z,25.38
2023-01-22T05:15:07.221Z,26.02
2023-01-22T05:17:36.038Z,27.83
2023-01-22T05:20:02.470Z,25.30
2023-01-22T05:22:28.869Z,24.83
2023-01-22T05:24:55.429Z,28.42
2023-01-22T05:27:21.891Z,26.27
2023-01-22T05:29:48.278Z,27.80
2023-01-22T05:32:15.678Z,30.70
2023-01-22T05:34:42.092Z,31.15
2023-01-22T05:37:08.520Z,31.75
2023-01-22T05:39:34.920Z,28.92
2023-01-22T05:42:01.382Z,32.20
2023-01-22T05:44:27.829Z,30.73
2023-01-22T05:46:54.214Z,34.00
2023-01-22T05:49:20.705Z,31.52
2023-01-22T05:51:47.154Z,34.40
2023-01-22T05:54:13.644Z,33.10
2023-01-22T05:56:40.118Z,34.55
2023-01-22T05:59:06.579Z,36.33
2023-01-22T06:01:32.981Z,38.80
2023-01-22T06:03:59.429Z,32.03
2023-01-22T06:06:25.829Z,34.95
2023-01-22T06:08:52.704Z,34.58
2023-01-22T06:11:19.397Z,33.45
2023-01-22T06:13:46.905Z,34.65
2023-01-22T06:16:13.408Z,39.65
2023-01-22T06:18:40.009Z,38.25
2023-01-22T06:21:07.943Z,34.47
2023-01-22T06:23:34.443Z,35.40
2023-01-22T06:26:01.999Z,36.08
2023-01-22T06:28:28.878Z,40.50
2023-01-22T06:30:57.476Z,40.63
2023-01-22T06:33:24.156Z,41.00
2023-01-22T06:35:57.005Z,38.42
2023-01-22T06:38:23.807Z,38.25
2023-01-22T06:40:54.639Z,38.22
2023-01-22T06:43:21.316Z,40.35
2023-01-22T06:45:47.692Z,40.50
2023-01-22T06:48:14.275Z,40.92
2023-01-22T06:50:40.702Z,40.05
2023-01-22T06:53:07.244Z,38.50
2023-01-22T06:55:33.756Z,37.70
2023-01-22T06:58:00.178Z,37.47
2023-01-22T07:00:26.589Z,40.17
2023-01-22T07:02:53.070Z,44.67
2023-01-22T07:05:23.156Z,44.92
2023-01-22T07:07:53.247Z,41.10
2023-01-22T07:10:20.063Z,40.63
2023-01-22T07:12:47.059Z,42.13
2023-01-22T07:15:13.506Z,42.30
2023-01-22T07:17:40.013Z,43.95
2023-01-22T07:20:06.661Z,44.15
2023-01-22T07:22:33.039Z,38.20
2023-01-22T07:24:59.425Z,39.35
2023-01-22T07:27:25.885Z,41.53
2023-01-22T07:29:52.247Z,43.97
2023-01-22T07:32:18.733Z,37.33
2023-01-22T07:34:45.120Z,38.83
2023-01-22T07:37:11.571Z,42.17
2023-01-22T07:39:37.976Z,43.78
2023-01-22T07:42:04.418Z,42.10
2023-01-22T07:44:30.842Z,42.70
2023-01-22T07:46:57.243Z,45.95
2023-01-22T07:49:23.660Z,44.50
2023-01-22T07:51:50.111Z,45.08
2023-01-22T07:54:18.492Z,43.63
2023-01-22T07:56:45.002Z,45.05
2023-01-22T07:59:11.477Z,46.92
2023-01-22T08:01:37.860Z,45.60
2023-01-22T08:04:04.426Z,47.03
2023-01-22T08:06:30.877Z,48.05
2023-01-22T08:08:59.231Z,42.03
2023-01-22T08:11:26.788Z,43.30
2023-01-22T08:13:53.183Z,44.00
2023-01-22T08:16:19.648Z,43.03
2023-01-22T08:18:46.213Z,43.35
2023-01-22T08:21:12.679Z,45.35
2023-01-22T08:23:39.043Z,41.53
2023-01-22T08:26:05.437Z,46.42
2023-01-22T08:28:32.105Z,44.60
2023-01-22T08:30:59.947Z,44.22
2023-01-22T08:33:26.757Z,44.20
2023-01-22T08:35:53.176Z,46.30
2023-01-22T08:38:19.913Z,47.08
2023-01-22T08:40:50.188Z,45.45
2023-01-22T08:43:16.622Z,46.33
2023-01-22T08:45:43.682Z,43.15
2023-01-22T08:48:10.089Z,49.00
2023-01-22T08:50:36.548Z,49.38
2023-01-22T08:53:02.964Z,46.00
2023-01-22T08:55:29.432Z,48.28
2023-01-22T08:57:56.769Z,49.80
2023-01-22T09:00:24.206Z,45.67
2023-01-22T09:02:50.649Z,44.97
2023-01-22T09:05:17.075Z,48.53
2023-01-22T09:07:43.547Z,42.85
2023-01-22T09:10:12.358Z,47.85
2023-01-22T09:12:41.950Z,43.33
2023-01-22T09:15:08.701Z,44.38
2023-01-22T09:17:35.233Z,48.08
2023-01-22T09:20:01.685Z,47.58
2023-01-22T09:22:28.114Z,45.17
2023-01-22T09:24:55.155Z,46.50
2023-01-22T09:27:21.525Z,50.70
2023-01-22T09:29:48.879Z,48.80
2023-01-22T09:32:15.503Z,43.67
2023-01-22T09:34:41.859Z,48.65
2023-01-22T09:37:10.901Z,49.08
2023-01-22T09:39:37.337Z,49.10
2023-01-22T09:42:04.360Z,46.88
2023-01-22T09:44:38.111Z,47.47
2023-01-22T09:47:15.518Z,44.53
2023-01-22T09:49:53.208Z,46.65
2023-01-22T09:52:19.923Z,47.83
2023-01-22T09:54:47.048Z,44.63
2023-01-22T09:57:26.464Z,45.97
2023-01-22T09:59:58.232Z,46.67
2023-01-22T10:02:30.333Z,46.15
2023-01-22T10:05:00.969Z,49.60
2023-01-22T10:07:37.365Z,47.45
2023-01-22T10:10:24.651Z,47.85
2023-01-22T10:13:11.421Z,45.63
2023-01-22T10:15:37.933Z,47.65
2023-01-22T10:18:29.425Z,48.05
2023-01-22T10:20:56.255Z,42.70
2023-01-22T10:23:25.547Z,47.28
2023-01-22T10:26:00.492Z,42.72
2023-01-22T10:28:28.049Z,45.95
2023-01-22T10:30:58.634Z,42.17
2023-01-22T10:33:26.933Z,46.53
2023-01-22T10:35:56.589Z,49.95
2023-01-22T10:38:33.736Z,45.20
2023-01-22T10:41:02.581Z,46.45
2023-01-22T10:43:34.582Z,53.03
2023-01-22T10:46:11.373Z,46.50
2023-01-22T10:48:37.784Z,46.72
2023-01-22T10:51:16.075Z,49.05
2023-01-22T10:53:54.681Z,49.28
2023-01-22T10:56:26.398Z,48.75
2023-01-22T10:58:53.100Z,45.45
2023-01-22T11:01:37.432Z,52.75
2023-01-22T11:04:25.639Z,44.60
2023-01-22T11:06:58.624Z,51.47
2023-01-22T11:09:56.941Z,47.90
2023-01-22T11:12:28.610Z,47.53
2023-01-22T11:15:02.645Z,35.85
2023-01-22T11:17:40.778Z,46.45
2023-01-22T11:20:29.813Z,49.28
2023-01-22T11:23:14.578Z,48.30
2023-01-22T11:25:47.364Z,45.00
2023-01-22T11:28:41.503Z,45.30
2023-01-22T11:31:23.851Z,44.03
2023-01-22T11:34:05.222Z,45.63
2023-01-22T11:36:40.534Z,53.63
2023-01-22T11:39:44.189Z,52.22
2023-01-22T11:42:27.523Z,51.05
2023-01-22T11:45:15.264Z,54.28
2023-01-22T11:48:02.655Z,45.03
2023-01-22T11:50:41.730Z,47.38
2023-01-22T11:53:58.757Z,44.75
2023-01-22T11:56:30.996Z,48.25
2023-01-22T11:59:05.906Z,47.78
2023-01-22T12:02:02.613Z,48.58
2023-01-22T12:04:47.716Z,50.67
2023-01-22T12:07:35.298Z,51.15
2023-01-22T12:10:11.452Z,51.55
2023-01-22T12:12:41.798Z,45.30
2023-01-22T12:15:42.320Z,49.35
2023-01-22T12:18:38.456Z,50.78
2023-01-22T12:21:23.077Z,48.42
2023-01-22T12:24:14.278Z,48.22
2023-01-22T12:26:45.600Z,46.53
2023-01-22T12:29:47.398Z,48.78
2023-01-22T12:32:19.030Z,45.47
2023-01-22T12:35:09.018Z,40.90
2023-01-22T12:37:47.902Z,48.42
2023-01-22T12:40:40.241Z,45.47
2023-01-22T12:43:07.187Z,46.88
2023-01-22T12:45:56.364Z,52.17
2023-01-22T12:48:35.553Z,49.70
2023-01-22T12:51:02.030Z,48.10
2023-01-22T12:53:34.621Z,47.65
2023-01-22T12:56:04.432Z,47.38
2023-01-22T12:58:33.519Z,44.22
2023-01-22T13:01:09.182Z,45.65
2023-01-22T13:03:36.020Z,43.20
2023-01-22T13:06:04.880Z,49.30
2023-01-22T13:08:42.626Z,51.15
2023-01-22T13:11:11.616Z,55.53
2023-01-22T13:13:47.309Z,51.63
2023-01-22T13:16:23.418Z,57.10
2023-01-22T13:18:55.066Z,62.65
2023-01-22T13:21:32.619Z,62.72
2023-01-22T13:24:05.586Z,62.47
2023-01-22T13:26:34.907Z,60.22
2023-01-22T13:29:04.822Z,55.58
2023-01-22T13:31:32.823Z,62.15
2023-01-22T13:34:08.541Z,66.97
2023-01-22T13:36:44.145Z,56.58
2023-01-22T13:39:22.170Z,63.03
2023-01-22T13:41:51.191Z,58.70
2023-01-22T13:44:23.928Z,58.13
2023-01-22T13:46:50.933Z,64.85
2023-01-22T13:49:21.675Z,60.22
2023-01-22T13:51:48.383Z,60.15
2023-01-22T13:54:25.166Z,61.67
2023-01-22T13:56:51.663Z,56.95
2023-01-22T13:59:23.774Z,67.03
2023-01-22T14:01:50.346Z,60.25
2023-01-22T14:04:37.138Z,59.92
2023-01-22T14:07:06.907Z,62.92
2023-01-22T14:09:35.999Z,59.25
2023-01-22T14:12:17.592Z,62.47
2023-01-22T14:14:44.102Z,65.97
2023-01-22T14:17:25.286Z,63.58
2023-01-22T14:19:51.836Z,57.90
2023-01-22T14:22:18.266Z,58.15
2023-01-22T14:24:44.655Z,54.75
2023-01-22T14:27:11.589Z,58.40
2023-01-22T14:29:37.977Z,62.40
2023-01-22T14:32:04.684Z,60.90
2023-01-22T14:34:31.067Z,69.55
2023-01-22T14:36:57.451Z,57.30
2023-01-22T14:39:23.968Z,59.90
2023-01-22T14:41:51.312Z,59.95
2023-01-22T14:44:17.729Z,58.80
2023-01-22T14:46:44.123Z,61.67
2023-01-22T14:49:10.495Z,74.70
2023-01-22T14:51:36.896Z,70.70
2023-01-22T14:54:03.339Z,70.40
2023-01-22T14:56:29.762Z,79.25
2023-01-22T14:58:56.167Z,71.82
2023-01-22T15:01:22.770Z,74.05
2023-01-22T15:03:49.233Z,94.72
2023-01-22T15:06:15.675Z,81.95
2023-01-22T15:08:42.057Z,87.75
2023-01-22T15:11:08.490Z,93.70
2023-01-22T15:13:34.962Z,92.63
2023-01-22T15:16:06.236Z,82.10
2023-01-22T15:18:34.094Z,73.95
2023-01-22T15:21:00.608Z,72.00
2023-01-22T15:23:27.017Z,71.65
2023-01-22T15:25:58.583Z,84.20
2023-01-22T15:28:24.965Z,91.33
2023-01-22T15:30:53.473Z,122.78
2023-01-22T15:33:20.357Z,113.32
2023-01-22T15:35:46.738Z,80.65
2023-01-22T15:38:13.126Z,91.03
2023-01-22T15:40:39.558Z,71.22
2023-01-22T15:43:05.985Z,77.32
2023-01-22T15:45:32.727Z,77.05
2023-01-22T15:47:59.251Z,67.50
2023-01-22T15:50:27.128Z,75.25
2023-01-22T15:52:54.904Z,66.07
2023-01-22T15:55:21.578Z,59.72
2023-01-22T15:57:48.000Z,56.85
2023-01-22T16:00:15.059Z,78.03
2023-01-22T16:02:41.593Z,56.88
2023-01-22T16:05:08.476Z,52.55
2023-01-22T16:07:34.908Z,85.60
2023-01-22T16:10:01.498Z,84.47
2023-01-22T16:12:28.001Z,90.85
2023-01-22T16:14:54.393Z,59.38
2023-01-22T16:17:20.773Z,56.00
2023-01-22T16:19:50.221Z,73.10
2023-01-22T16:22:16.599Z,70.75
2023-01-22T16:24:42.963Z,56.17
2023-01-22T16:27:09.987Z,54.58
2023-01-22T16:29:36.412Z,52.42
2023-01-22T16:32:02.809Z,52.70
2023-01-22T16:34:29.178Z,57.05
2023-01-22T16:36:57.464Z,61.30
2023-01-22T16:39:25.767Z,59.90
2023-01-22T16:41:52.708Z,58.40
2023-01-22T16:44:27.276Z,55.97
2023-01-22T16:46:56.881Z,52.80
2023-01-22T16:49:25.556Z,52.88
2023-01-22T16:51:57.527Z,53.53
2023-01-22T16:54:32.739Z,52.30
2023-01-22T16:57:02.847Z,53.83
2023-01-22T16:59:29.981Z,58.65
2023-01-22T17:01:58.274Z,56.60
2023-01-22T17:04:24.654Z,56.45
2023-01-22T17:06:53.317Z,51.30
2023-01-22T17:09:31.164Z,53.20
2023-01-22T17:12:00.022Z,52.42
2023-01-22T17:14:29.545Z,55.28
2023-01-22T17:16:57.043Z,49.85
2023-01-22T17:19:23.708Z,56.03
2023-01-22T17:21:51.865Z,48.08
2023-01-22T17:24:18.417Z,51.47
2023-01-22T17:26:47.054Z,49.45
2023-01-22T17:29:14.333Z,55.42
2023-01-22T17:31:40.836Z,51.45
2023-01-22T17:34:10.841Z,49.53
2023-01-22T17:36:38.528Z,51.22
2023-01-22T17:39:05.256Z,56.78
2023-01-22T17:41:32.620Z,49.30
2023-01-22T17:43:59.482Z,58.25
2023-01-22T17:46:29.125Z,49.15
2023-01-22T17:48:56.164Z,56.13
2023-01-22T17:51:24.931Z,52.30
2023-01-22T17:53:52.029Z,50.30
2023-01-22T17:56:24.121Z,48.13
2023-01-22T17:58:53.966Z,56.13
2023-01-22T18:01:23.755Z,47.08
2023-01-22T18:03:50.670Z,52.60
2023-01-22T18:06:18.262Z,44.85
2023-01-22T18:08:44.653Z,54.50
2023-01-22T18:11:14.710Z,52.50
2023-01-22T18:13:41.494Z,54.33
2023-01-22T18:16:10.489Z,52.05
2023-01-22T18:18:36.946Z,50.50
2023-01-22T18:21:03.442Z,52.88
2023-01-22T18:23:29.845Z,49.15
2023-01-22T18:25:57.910Z,54.90
2023-01-22T18:28:26.196Z,56.33
2023-01-22T18:30:53.053Z,55.90
2023-01-22T18:33:21.065Z,56.05
2023-01-22T18:35:50.543Z,49.25
2023-01-22T18:38:20.684Z,48.03
2023-01-22T18:40:48.336Z,47.95
2023-01-22T18:43:14.880Z,50.08
2023-01-22T18:45:41.278Z,51.47
2023-01-22T18:48:10.943Z,53.70
2023-01-22T18:50:37.989Z,52.63
2023-01-22T18:53:05.430Z,49.88
2023-01-22T18:55:31.845Z,52.35
2023-01-22T18:58:04.273Z,58.65
2023-01-22T19:02:57.777Z,55.15
2023-01-22T19:05:25.247Z,49.95
2023-01-22T19:07:52.087Z,57.22
2023-01-22T19:10:18.971Z,51.55
2023-01-22T19:12:45.757Z,52.25
2023-01-22T19:15:12.919Z,51.33
2023-01-22T19:17:39.339Z,50.58
2023-01-22T19:20:10.676Z,49.22
2023-01-22T19:22:37.070Z,47.17
2023-01-22T19:25:06.350Z,44.78
2023-01-22T19:27:33.051Z,49.47
2023-01-22T19:30:00.479Z,48.00
2023-01-22T19:32:31.236Z,50.70
2023-01-22T19:34:57.780Z,51.28
2023-01-22T19:37:25.091Z,53.53
2023-01-22T19:39:51.506Z,53.67
2023-01-22T19:42:18.404Z,55.60
2023-01-22T19:44:45.301Z,59.50
2023-01-22T19:47:12.283Z,59.13
2023-01-22T19:49:38.681Z,61.38
2023-01-22T19:52:05.336Z,56.90
2023-01-22T19:54:31.704Z,64.75
2023-01-22T19:56:58.173Z,62.15
2023-01-22T19:59:25.231Z,62.00
2023-01-22T20:01:52.155Z,66.57
2023-01-22T20:04:22.483Z,64.50
2023-01-22T20:06:52.986Z,66.35
2023-01-22T20:09:21.470Z,58.60
2023-01-22T20:11:55.276Z,65.43
2023-01-22T20:14:22.984Z,52.47
2023-01-22T20:16:49.534Z,54.60
2023-01-22T20:19:16.010Z,71.32
2023-01-22T20:21:42.419Z,75.13
2023-01-22T20:24:08.887Z,59.92
2023-01-22T20:26:35.322Z,64.18
2023-01-22T20:29:03.024Z,55.28
2023-01-22T20:31:29.689Z,59.72
2023-01-22T20:33:57.025Z,60.20
2023-01-22T20:36:27.656Z,55.92
2023-01-22T20:38:54.572Z,57.38
2023-01-22T20:41:22.443Z,57.83
2023-01-22T20:43:48.949Z,56.78
2023-01-22T20:46:18.501Z,62.20
2023-01-22T20:48:45.056Z,65.10
2023-01-22T20:51:17.265Z,67.70
2023-01-22T20:53:45.007Z,67.82
2023-01-22T20:56:14.009Z,63.08
2023-01-22T20:58:40.449Z,61.75
2023-01-22T21:01:09.123Z,78.40
2023-01-22T21:03:35.938Z,69.22
2023-01-22T21:06:07.636Z,66.32
2023-01-22T21:08:34.737Z,58.47
2023-01-22T21:11:06.108Z,71.78
2023-01-22T21:13:32.498Z,61.17
2023-01-22T21:16:06.619Z,56.30
2023-01-22T21:18:33.034Z,63.28
2023-01-22T21:20:59.398Z,65.78
2023-01-22T21:23:25.835Z,66.53
2023-01-22T21:25:52.206Z,63.10
2023-01-22T21:28:18.630Z,66.63
2023-01-22T21:30:45.027Z,70.38
2023-01-22T21:33:11.530Z,62.58
2023-01-22T21:35:37.891Z,66.35
2023-01-22T21:38:04.260Z,56.88
2023-01-22T21:40:30.785Z,67.85
2023-01-22T21:43:15.860Z,61.10
2023-01-22T21:46:01.215Z,57.80
2023-01-22T21:48:28.781Z,57.03
2023-01-22T21:50:55.200Z,55.92
2023-01-22T21:53:21.710Z,58.28
2023-01-22T21:55:52.329Z,52.53
2023-01-22T21:58:19.381Z,61.53
2023-01-22T22:00:45.850Z,58.70
2023-01-22T22:03:12.245Z,56.50
2023-01-22T22:05:40.048Z,55.50
2023-01-22T22:08:06.576Z,57.40
2023-01-22T22:10:32.944Z,58.15
2023-01-22T22:12:59.309Z,59.78
2023-01-22T22:15:25.687Z,59.50
2023-01-22T22:17:52.122Z,54.30
2023-01-22T22:20:18.805Z,60.15
2023-01-22T22:22:45.870Z,62.78
2023-01-22T22:25:12.240Z,54.03
2023-01-22T22:27:38.601Z,48.97
2023-01-22T22:30:05.393Z,51.95
2023-01-22T22:32:31.761Z,54.70
2023-01-22T22:34:58.240Z,48.85
2023-01-22T22:37:24.644Z,49.58
2023-01-22T22:39:51.006Z,49.80
2023-01-22T22:42:17.385Z,51.30
2023-01-22T22:44:43.819Z,48.35
2023-01-22T22:47:10.202Z,51.78
2023-01-22T22:49:36.576Z,56.03
2023-01-22T22:52:02.979Z,54.10
2023-01-22T22:54:29.345Z,55.95
2023-01-22T22:56:55.706Z,55.67
2023-01-22T22:59:22.154Z,59.13
2023-01-22T23:01:49.319Z,54.70
2023-01-22T23:04:15.878Z,56.95
2023-01-22T23:06:44.166Z,60.45
2023-01-22T23:09:22.047Z,61.03
2023-01-22T23:11:51.864Z,64.75
2023-01-22T23:14:18.238Z,58.67
2023-01-22T23:16:44.822Z,59.33
2023-01-22T23:19:17.076Z,58.05
2023-01-22T23:21:43.861Z,66.45
2023-01-22T23:24:11.900Z,64.57
2023-01-22T23:26:38.929Z,70.20
2023-01-22T23:29:07.329Z,77.18
2023-01-22T23:31:35.964Z,66.40
2023-01-22T23:34:03.529Z,73.57
2023-01-22T23:36:30.647Z,71.78
2023-01-22T23:38:57.038Z,67.28
2023-01-22T23:41:23.692Z,79.13
2023-01-22T23:43:50.325Z,75.28
2023-01-22T23:46:22.670Z,82.05
2023-01-22T23:48:49.940Z,81.18
2023-01-22T23:51:17.034Z,74.78
2023-01-22T23:53:47.254Z,77.40
2023-01-22T23:56:14.408Z,74.78
2023-01-22T23:58:40.977Z,72.95
